createdAt,value
2018-12-15T00:02:10.107Z,103446.09
2018-12-15T00:04:38.536Z,103453.80
2018-12-15T00:07:06.994Z,103451.59
2018-12-15T00:09:35.368Z,103448.47
2018-12-15T00:12:03.800Z,103453.06
2018-12-15T00:14:32.341Z,103445.91
2018-12-15T00:17:05.709Z,103450.67
2018-12-15T00:19:31.764Z,103446.27
2018-12-15T00:22:00.159Z,103445.91
2018-12-15T00:24:28.565Z,103442.97
2018-12-15T00:26:56.972Z,103449.39
2018-12-15T00:29:25.380Z,103197.11
2018-12-15T00:31:54.698Z,103447.55
2018-12-15T00:34:23.710Z,103445.36
2018-12-15T00:36:52.094Z,103449.20
2018-12-15T00:39:21.082Z,103444.25
2018-12-15T00:41:49.472Z,103447.73
2018-12-15T00:44:18.036Z,103441.50
2018-12-15T00:46:46.996Z,103442.78
2018-12-15T00:49:15.465Z,103446.09
2018-12-15T00:51:43.899Z,103452.88
2018-12-15T00:54:12.638Z,103451.41
2018-12-15T00:56:41.704Z,103458.58
2018-12-15T00:59:10.129Z,103455.64
2018-12-15T01:01:38.512Z,103455.64
2018-12-15T01:04:06.922Z,103449.39
2018-12-15T01:06:35.304Z,103410.83
2018-12-15T01:09:05.037Z,103455.80
2018-12-15T01:11:33.884Z,103455.80
2018-12-15T01:14:02.267Z,103460.55
2018-12-15T01:16:30.652Z,103468.61
2018-12-15T01:18:59.132Z,103468.05
2018-12-15T01:21:27.560Z,103471.56
2018-12-15T01:23:55.965Z,103470.06
2018-12-15T01:26:24.380Z,103468.97
2018-12-15T01:28:52.769Z,103471.72
2018-12-15T01:31:21.141Z,103467.52
2018-12-15T01:33:49.637Z,103472.84
2018-12-15T01:36:18.040Z,103472.67
2018-12-15T01:38:46.419Z,103469.20
2018-12-15T01:41:14.968Z,103491.97
2018-12-15T01:43:43.817Z,103476.19
2018-12-15T01:46:12.191Z,103474.17
2018-12-15T01:48:40.605Z,103476.75
2018-12-15T01:51:09.052Z,103474.55
2018-12-15T01:53:37.446Z,103472.16
2018-12-15T01:56:06.313Z,103470.33
2018-12-15T01:58:34.797Z,103474.19
2018-12-15T02:01:03.274Z,103470.33
2018-12-15T02:03:31.708Z,103469.78
2018-12-15T02:06:00.120Z,103468.13
2018-12-15T02:08:28.528Z,103329.36
2018-12-15T02:10:56.935Z,103459.12
2018-12-15T02:13:25.325Z,103466.29
2018-12-15T02:15:53.734Z,103461.52
2018-12-15T02:18:22.143Z,103462.06
2018-12-15T02:20:50.547Z,103463.35
2018-12-15T02:23:18.938Z,103464.09
2018-12-15T02:25:47.361Z,103465.00
2018-12-15T02:28:15.773Z,103465.19
2018-12-15T02:30:44.413Z,103461.70
2018-12-15T02:33:12.825Z,103456.00
2018-12-15T02:35:41.231Z,103454.53
2018-12-15T02:38:09.613Z,103451.41
2018-12-15T02:40:38.070Z,103453.25
2018-12-15T02:43:06.457Z,103453.61
2018-12-15T02:45:34.959Z,103450.86
2018-12-15T02:48:03.623Z,103446.27
2018-12-15T02:50:34.993Z,103445.53
2018-12-15T02:53:03.413Z,103447.17
2018-12-15T02:55:31.807Z,103445.70
2018-12-15T02:58:00.485Z,103447.16
2018-12-15T03:00:29.156Z,103449.55
2018-12-15T03:02:57.558Z,103445.69
2018-12-15T03:05:25.977Z,103437.24
2018-12-15T03:07:54.397Z,103440.54
2018-12-15T03:10:22.785Z,103446.03
2018-12-15T03:12:52.181Z,103440.92
2018-12-15T03:15:20.580Z,103445.31
2018-12-15T03:17:49.473Z,103439.98
2018-12-15T03:20:17.864Z,103438.15
2018-12-15T03:22:47.336Z,103433.37
2018-12-15T03:25:15.749Z,103437.02
2018-12-15T03:27:44.148Z,103436.82
2018-12-15T03:30:12.615Z,103439.38
2018-12-15T03:32:41.258Z,103432.03
2018-12-15T03:35:09.800Z,103441.73
2018-12-15T03:37:38.672Z,103444.28
2018-12-15T03:40:07.067Z,103437.47
2018-12-15T03:42:35.772Z,103440.95
2018-12-15T03:45:04.778Z,103442.95
2018-12-15T03:47:33.179Z,103436.72
2018-12-15T03:50:01.728Z,103440.19
2018-12-15T03:52:30.170Z,103441.27
2018-12-15T03:54:59.544Z,103441.47
2018-12-15T03:57:28.473Z,103446.23
2018-12-15T03:59:57.128Z,103446.62
2018-12-15T04:02:25.980Z,103448.09
2018-12-15T04:04:54.791Z,103452.30
2018-12-15T04:07:23.248Z,103450.10
2018-12-15T04:09:51.861Z,103450.29
2018-12-15T04:12:20.275Z,103449.73
2018-12-15T04:14:48.764Z,103456.16
2018-12-15T04:17:17.153Z,103446.80
2018-12-15T04:19:45.543Z,103454.51
2018-12-15T04:22:20.020Z,103451.39
2018-12-15T04:24:48.423Z,103453.97
2018-12-15T04:27:16.805Z,103449.58
2018-12-15T04:29:45.241Z,103459.11
2018-12-15T04:32:13.620Z,103459.30
2018-12-15T04:34:42.028Z,103464.80
2018-12-15T04:37:10.460Z,103454.71
2018-12-15T04:39:38.989Z,103461.88
2018-12-15T04:42:07.470Z,103460.59
2018-12-15T04:44:35.889Z,103463.17
2018-12-15T04:47:04.534Z,103471.25
2018-12-15T04:49:32.909Z,103465.77
2018-12-15T04:52:01.310Z,103463.39
2018-12-15T04:54:29.806Z,103469.45
2018-12-15T04:56:58.202Z,103423.72
2018-12-15T04:59:26.626Z,103463.06
2018-12-15T05:01:55.287Z,103460.87
2018-12-15T05:04:24.032Z,103460.33
2018-12-15T05:06:52.517Z,103319.83
2018-12-15T05:09:20.896Z,103461.81
2018-12-15T05:11:49.284Z,103462.55
2018-12-15T05:14:18.073Z,103463.47
2018-12-15T05:16:46.498Z,103464.77
2018-12-15T05:19:14.886Z,103467.89
2018-12-15T05:21:43.368Z,103470.83
2018-12-15T05:24:11.765Z,103467.13
2018-12-15T05:26:40.831Z,103465.48
2018-12-15T05:29:09.249Z,103471.20
2018-12-15T05:31:37.663Z,103471.73
2018-12-15T05:34:06.046Z,103464.77
2018-12-15T05:36:34.464Z,103463.48
2018-12-15T05:39:02.970Z,103473.00
2018-12-15T05:41:31.397Z,103475.20
2018-12-15T05:43:59.879Z,103470.63
2018-12-15T05:46:28.261Z,103469.51
2018-12-15T05:48:56.754Z,103473.34
2018-12-15T05:51:25.186Z,103472.78
2018-12-15T05:53:53.642Z,103471.86
2018-12-15T05:56:22.028Z,103468.92
2018-12-15T05:58:51.948Z,103481.03
2018-12-15T06:01:20.345Z,103485.98
2018-12-15T06:03:48.905Z,103484.33
2018-12-15T06:06:17.461Z,103490.56
2018-12-15T06:08:45.855Z,103495.88
2018-12-15T06:11:14.231Z,103491.47
2018-12-15T06:13:42.644Z,103492.75
2018-12-15T06:16:11.128Z,103495.13
2018-12-15T06:18:39.532Z,103490.72
2018-12-15T06:21:08.009Z,103494.58
2018-12-15T06:23:36.454Z,103505.02
2018-12-15T06:26:04.983Z,103498.41
2018-12-15T06:28:33.572Z,103491.63
2018-12-15T06:31:02.005Z,103492.91
2018-12-15T06:33:30.390Z,103489.23
2018-12-15T06:35:58.807Z,103490.16
2018-12-15T06:38:27.184Z,103489.42
2018-12-15T06:40:55.585Z,103494.56
2018-12-15T06:43:24.557Z,103498.79
2018-12-15T06:45:52.957Z,103496.40
2018-12-15T06:48:21.428Z,103492.01
2018-12-15T06:50:49.874Z,103499.90
2018-12-15T06:53:18.274Z,103500.81
2018-12-15T06:55:46.704Z,103502.66
2018-12-15T06:58:15.135Z,103502.12
2018-12-15T07:00:43.564Z,103505.43
2018-12-15T07:03:11.957Z,103510.92
2018-12-15T07:05:40.660Z,103512.75
2018-12-15T07:08:09.196Z,103519.53
2018-12-15T07:10:37.563Z,103520.84
2018-12-15T07:13:05.978Z,103521.96
2018-12-15T07:15:34.385Z,103518.30
2018-12-15T07:18:03.017Z,103520.69
2018-12-15T07:20:31.445Z,103517.56
2018-12-15T07:22:59.903Z,103521.61
2018-12-15T07:25:28.612Z,103519.59
2018-12-15T07:27:57.140Z,103482.81
2018-12-15T07:30:25.849Z,103516.84
2018-12-15T07:32:54.829Z,103521.80
2018-12-15T07:35:23.308Z,103517.96
2018-12-15T07:37:51.705Z,103522.72
2018-12-15T07:40:20.358Z,103523.45
2018-12-15T07:42:48.791Z,103511.70
2018-12-15T07:45:17.331Z,103523.64
2018-12-15T07:47:45.710Z,103518.87
2018-12-15T07:50:14.130Z,103518.87
2018-12-15T07:52:42.516Z,103525.66
2018-12-15T07:55:10.924Z,103530.98
2018-12-15T07:57:39.362Z,103539.41
2018-12-15T08:00:09.262Z,103541.42
2018-12-15T08:02:38.005Z,103534.83
2018-12-15T08:05:07.180Z,103541.82
2018-12-15T08:07:35.926Z,103543.64
2018-12-15T08:10:05.679Z,103545.11
2018-12-15T08:12:39.478Z,103550.63
2018-12-15T08:15:09.245Z,103536.88
2018-12-15T08:17:37.685Z,103539.08
2018-12-15T08:20:08.867Z,103542.35
2018-12-15T08:22:37.388Z,103538.14
2018-12-15T08:25:06.944Z,103544.38
2018-12-15T08:27:35.360Z,103539.42
2018-12-15T08:30:04.465Z,103542.55
2018-12-15T08:32:32.998Z,103543.28
2018-12-15T08:35:01.736Z,103546.77
2018-12-15T08:37:30.122Z,103539.62
2018-12-15T08:39:58.538Z,103543.48
2018-12-15T08:42:27.091Z,103460.27
2018-12-15T08:44:55.595Z,103537.63
2018-12-15T08:47:24.877Z,103539.83
2018-12-15T08:49:56.266Z,103538.19
2018-12-15T08:52:24.651Z,103534.88
2018-12-15T08:54:53.800Z,103535.26
2018-12-15T08:57:25.339Z,103537.83
2018-12-15T08:59:54.646Z,103539.30
2018-12-15T09:02:23.128Z,103546.10
2018-12-15T09:04:53.658Z,103543.35
2018-12-15T09:07:22.193Z,103548.86
2018-12-15T09:09:50.819Z,103556.02
2018-12-15T09:12:19.442Z,103556.56
2018-12-15T09:14:47.892Z,103559.34
2018-12-15T09:17:16.276Z,103559.71
2018-12-15T09:19:44.749Z,103554.03
2018-12-15T09:22:13.175Z,103550.55
2018-12-15T09:24:41.600Z,103548.72
2018-12-15T09:27:10.022Z,103547.99
2018-12-15T09:29:38.524Z,103545.80
2018-12-15T09:32:07.052Z,103552.77
2018-12-15T09:34:36.266Z,103556.81
2018-12-15T09:37:05.001Z,103550.57
2018-12-15T09:39:33.457Z,103545.43
2018-12-15T09:42:01.902Z,103544.14
2018-12-15T09:44:31.595Z,103545.80
2018-12-15T09:47:06.383Z,103552.05
2018-12-15T09:49:34.817Z,103540.11
2018-12-15T09:52:03.385Z,103540.30
2018-12-15T09:54:31.802Z,103536.44
2018-12-15T09:57:00.712Z,103536.08
2018-12-15T09:59:29.270Z,103536.45
2018-12-15T10:01:58.377Z,103536.27
2018-12-15T10:04:26.841Z,103528.00
2018-12-15T10:06:55.232Z,103529.47
2018-12-15T10:09:23.741Z,103532.41
2018-12-15T10:11:52.326Z,103532.04
2018-12-15T10:14:20.823Z,103528.19
2018-12-15T10:16:49.232Z,103521.39
2018-12-15T10:19:24.089Z,103519.38
2018-12-15T10:21:48.205Z,103526.91
2018-12-15T10:24:16.595Z,103519.73
2018-12-15T10:26:44.993Z,103520.47
2018-12-15T10:29:18.431Z,103510.38
2018-12-15T10:31:52.392Z,103507.44
2018-12-15T10:34:21.004Z,103511.47
2018-12-15T10:36:49.816Z,103516.44
2018-12-15T10:39:18.278Z,103509.09
2018-12-15T10:41:46.868Z,103512.76
2018-12-15T10:44:15.268Z,103505.05
2018-12-15T10:46:43.896Z,103508.72
2018-12-15T10:49:12.311Z,103511.30
2018-12-15T10:51:40.918Z,103510.38
2018-12-15T10:54:09.456Z,103510.73
2018-12-15T10:56:37.926Z,103509.83
2018-12-15T10:59:06.675Z,103510.38
2018-12-15T11:01:36.769Z,103515.34
2018-12-15T11:04:06.449Z,103501.19
2018-12-15T11:06:34.888Z,103507.06
2018-12-15T11:09:04.326Z,103505.05
2018-12-15T11:11:32.819Z,103498.80
2018-12-15T11:14:01.489Z,103509.45
2018-12-15T11:16:30.076Z,103500.09
2018-12-15T11:18:58.455Z,103492.92
2018-12-15T11:21:26.841Z,103495.49
2018-12-15T11:23:56.189Z,103488.33
2018-12-15T11:26:24.589Z,103490.72
2018-12-15T11:28:53.030Z,103492.37
2018-12-15T11:31:25.132Z,103494.75
2018-12-15T11:33:56.662Z,103493.47
2018-12-15T11:36:25.493Z,103489.80
2018-12-15T11:38:58.122Z,103483.37
2018-12-15T11:41:26.578Z,103486.30
2018-12-15T11:43:54.982Z,103479.14
2018-12-15T11:46:23.480Z,103484.47
2018-12-15T11:48:51.944Z,103484.09
2018-12-15T11:51:20.381Z,103475.64
2018-12-15T11:53:48.813Z,103477.48
2018-12-15T11:56:19.327Z,103481.70
2018-12-15T11:58:48.438Z,103481.70
2018-12-15T12:01:16.955Z,103477.11
2018-12-15T12:03:45.631Z,103478.58
2018-12-15T12:06:14.111Z,103478.39
2018-12-15T12:08:42.544Z,103478.58
2018-12-15T12:11:10.989Z,103479.86
2018-12-15T12:13:39.392Z,103478.95
2018-12-15T12:16:07.936Z,103481.52
2018-12-15T12:18:36.923Z,103471.78
2018-12-15T12:21:05.457Z,103470.13
2018-12-15T12:23:33.949Z,103471.97
2018-12-15T12:26:02.530Z,103469.77
2018-12-15T12:28:31.697Z,103468.11
2018-12-15T12:31:00.129Z,103465.91
2018-12-15T12:33:28.612Z,103473.63
2018-12-15T12:35:57.017Z,103474.55
2018-12-15T12:38:25.509Z,103467.56
2018-12-15T12:40:54.178Z,103476.02
2018-12-15T12:43:23.418Z,103475.28
2018-12-15T12:45:52.490Z,103472.89
2018-12-15T12:48:21.014Z,103478.40
2018-12-15T12:50:49.398Z,103475.46
2018-12-15T12:53:17.810Z,103474.55
2018-12-15T12:55:46.389Z,103468.30
2018-12-15T12:58:14.785Z,103466.64
2018-12-15T13:00:43.321Z,103464.63
2018-12-15T13:03:11.752Z,103468.66
2018-12-15T13:05:40.152Z,103467.92
2018-12-15T13:08:08.544Z,103465.35
2018-12-15T13:10:37.081Z,103462.97
2018-12-15T13:13:05.461Z,103456.17
2018-12-15T13:15:34.011Z,103452.49
2018-12-15T13:18:02.608Z,103472.52
2018-12-15T13:20:31.257Z,103479.88
2018-12-15T13:22:59.683Z,103465.73
2018-12-15T13:25:28.095Z,103473.27
2018-12-15T13:27:56.484Z,103469.77
2018-12-15T13:30:25.164Z,103469.95
2018-12-15T13:32:53.676Z,103462.23
2018-12-15T13:35:22.321Z,103459.30
2018-12-15T13:37:50.990Z,103461.88
2018-12-15T13:40:19.506Z,103455.62
2018-12-15T13:42:47.932Z,103456.91
2018-12-15T13:45:16.312Z,103456.91
2018-12-15T13:47:44.992Z,103451.95
2018-12-15T13:50:17.529Z,103459.48
2018-12-15T13:52:46.217Z,103455.27
2018-12-15T13:55:14.785Z,103451.58
2018-12-15T13:57:43.395Z,103452.51
2018-12-15T14:00:11.953Z,103450.86
2018-12-15T14:02:40.364Z,103452.88
2018-12-15T14:05:08.914Z,103452.14
2018-12-15T14:07:37.857Z,103452.51
2018-12-15T14:10:06.571Z,103453.05
2018-12-15T14:12:35.054Z,102895.25
2018-12-15T14:15:03.843Z,103456.55
2018-12-15T14:17:32.221Z,103451.03
2018-12-15T14:20:00.826Z,103458.75
2018-12-15T14:22:29.971Z,103458.56
2018-12-15T14:24:58.397Z,103456.72
2018-12-15T14:27:26.796Z,103451.40
2018-12-15T14:29:55.225Z,103449.02
2018-12-15T14:32:23.601Z,103451.95
2018-12-15T14:34:54.964Z,103455.27
2018-12-15T14:37:23.424Z,103447.55
2018-12-15T14:39:51.832Z,103447.73
2018-12-15T14:42:20.237Z,103449.02
2018-12-15T14:44:49.750Z,103448.83
2018-12-15T14:47:18.150Z,103444.23
2018-12-15T14:49:46.599Z,103446.08
2018-12-15T14:52:15.041Z,103445.34
2018-12-15T14:54:43.500Z,103490.90
2018-12-15T14:57:11.903Z,103447.72
2018-12-15T14:59:50.472Z,103436.69
2018-12-15T15:02:18.900Z,103436.14
2018-12-15T15:04:47.291Z,103428.60
2018-12-15T15:07:15.723Z,103430.06
2018-12-15T15:09:44.553Z,103426.59
2018-12-15T15:12:13.133Z,103431.73
2018-12-15T15:14:41.661Z,103431.73
2018-12-15T15:17:10.063Z,103433.58
2018-12-15T15:19:38.456Z,103425.86
2018-12-15T15:22:07.158Z,103428.06
2018-12-15T15:24:35.776Z,103420.91
2018-12-15T15:27:04.429Z,103410.42
2018-12-15T15:29:32.868Z,103413.73
2018-12-15T15:32:02.009Z,103410.61
2018-12-15T15:34:30.393Z,103408.59
2018-12-15T15:36:58.842Z,103402.33
2018-12-15T15:39:27.509Z,103399.77
2018-12-15T15:41:55.996Z,103402.15
2018-12-15T15:44:24.457Z,103397.55
2018-12-15T15:46:52.940Z,103401.97
2018-12-15T15:49:21.376Z,103401.42
2018-12-15T15:51:49.793Z,103397.20
2018-12-15T15:54:18.289Z,103401.06
2018-12-15T15:56:46.771Z,103401.43
2018-12-15T15:59:15.456Z,103397.39
2018-12-15T16:01:44.089Z,103386.73
2018-12-15T16:04:12.571Z,103379.03
2018-12-15T16:06:41.000Z,103384.72
2018-12-15T16:09:10.280Z,103393.36
2018-12-15T16:11:39.281Z,103393.37
2018-12-15T16:14:07.696Z,103389.51
2018-12-15T16:16:36.868Z,103392.81
2018-12-15T16:19:05.366Z,103391.34
2018-12-15T16:21:33.845Z,103397.77
2018-12-15T16:24:02.853Z,103392.42
2018-12-15T16:26:31.336Z,103410.80
2018-12-15T16:29:00.297Z,103392.42
2018-12-15T16:31:28.935Z,103396.66
2018-12-15T16:33:57.531Z,103389.86
2018-12-15T16:36:25.979Z,103392.42
2018-12-15T16:38:54.668Z,103395.55
2018-12-15T16:41:23.121Z,103299.78
2018-12-15T16:43:51.686Z,103386.55
2018-12-15T16:46:20.792Z,103390.77
2018-12-15T16:48:49.224Z,103386.35
2018-12-15T16:51:17.743Z,103385.80
2018-12-15T16:53:46.478Z,103388.55
2018-12-15T16:56:15.323Z,103385.61
2018-12-15T16:58:43.850Z,103343.22
2018-12-15T17:01:12.847Z,103380.27
2018-12-15T17:03:41.248Z,103378.80
2018-12-15T17:06:09.828Z,103381.56
2018-12-15T17:08:38.589Z,103375.30
2018-12-15T17:11:06.977Z,103375.30
2018-12-15T17:13:35.825Z,103389.83
2018-12-15T17:16:04.953Z,103369.98
2018-12-15T17:18:33.357Z,103374.40
2018-12-15T17:21:02.128Z,103375.31
2018-12-15T17:23:30.940Z,103378.26
2018-12-15T17:26:00.669Z,103376.24
2018-12-15T17:28:30.812Z,103374.95
2018-12-15T17:31:00.946Z,103372.02
2018-12-15T17:33:29.392Z,103368.16
2018-12-15T17:35:58.017Z,103373.30
2018-12-15T17:38:27.158Z,103369.44
2018-12-15T17:40:55.585Z,103365.39
2018-12-15T17:43:24.596Z,103364.11
2018-12-15T17:45:53.479Z,103360.43
2018-12-15T17:48:23.905Z,103162.83
2018-12-15T17:50:54.047Z,103351.80
2018-12-15T17:53:22.541Z,103350.52
2018-12-15T17:55:50.938Z,103350.14
2018-12-15T17:58:19.424Z,103344.26
2018-12-15T18:00:48.361Z,103338.94
2018-12-15T18:03:17.514Z,103341.50
2018-12-15T18:05:47.302Z,103346.11
2018-12-15T18:08:16.614Z,103340.59
2018-12-15T18:10:45.069Z,103339.67
2018-12-15T18:13:14.112Z,103335.08
2018-12-15T18:15:42.768Z,103333.61
2018-12-15T18:18:11.181Z,103334.70
2018-12-15T18:20:39.617Z,103326.07
2018-12-15T18:23:08.368Z,103326.25
2018-12-15T18:25:36.907Z,103320.00
2018-12-15T18:28:05.784Z,103325.14
2018-12-15T18:30:35.043Z,103320.17
2018-12-15T18:33:03.574Z,103319.25
2018-12-15T18:35:33.645Z,103317.97
2018-12-15T18:38:03.011Z,103319.44
2018-12-15T18:40:31.484Z,103314.84
2018-12-15T18:43:00.350Z,103307.87
2018-12-15T18:45:28.997Z,103306.22
2018-12-15T18:47:57.468Z,103307.13
2018-12-15T18:50:26.493Z,103299.96
2018-12-15T18:52:55.216Z,103301.42
2018-12-15T18:55:23.621Z,103164.89
2018-12-15T18:57:52.482Z,103300.13
2018-12-15T19:00:20.979Z,103296.62
2018-12-15T19:02:49.857Z,103298.28
2018-12-15T19:05:18.344Z,103291.84
2018-12-15T19:07:46.959Z,103157.16
2018-12-15T19:10:17.619Z,103296.62
2018-12-15T19:12:46.174Z,103293.50
2018-12-15T19:15:14.842Z,103302.86
2018-12-15T19:17:43.248Z,103292.20
2018-12-15T19:20:11.845Z,103292.20
2018-12-15T19:22:40.804Z,103290.54
2018-12-15T19:25:09.427Z,103289.23
2018-12-15T19:27:38.008Z,103289.77
2018-12-15T19:30:07.592Z,103289.02
2018-12-15T19:32:36.125Z,103286.83
2018-12-15T19:35:05.600Z,103285.16
2018-12-15T19:37:34.200Z,103290.12
2018-12-15T19:40:02.674Z,103287.89
2018-12-15T19:42:35.292Z,103282.75
2018-12-15T19:45:05.619Z,103284.38
2018-12-15T19:47:34.212Z,103284.19
2018-12-15T19:50:02.923Z,103279.61
2018-12-15T19:52:32.567Z,103279.41
2018-12-15T19:55:01.101Z,103279.59
2018-12-15T19:57:29.684Z,103277.02
2018-12-15T19:59:58.112Z,103275.53
2018-12-15T20:02:26.625Z,103275.88
2018-12-15T20:04:55.333Z,103261.92
2018-12-15T20:07:23.878Z,103268.36
2018-12-15T20:09:52.369Z,103259.55
2018-12-15T20:12:21.012Z,103261.20
2018-12-15T20:14:50.057Z,103261.40
2018-12-15T20:17:19.094Z,103253.33
2018-12-15T20:19:49.173Z,103255.16
2018-12-15T20:22:17.881Z,103048.70
2018-12-15T20:24:46.774Z,103254.24
2018-12-15T20:27:16.674Z,103252.41
2018-12-15T20:29:45.613Z,103256.84
2018-12-15T20:32:14.430Z,103254.09
2018-12-15T20:34:43.129Z,103253.16
2018-12-15T20:37:12.012Z,103054.45
2018-12-15T20:39:40.445Z,103256.25
2018-12-15T20:42:09.257Z,103255.31
2018-12-15T20:44:41.719Z,103251.62
2018-12-15T20:47:08.349Z,103252.52
2018-12-15T20:49:36.988Z,103246.80
2018-12-15T20:52:05.419Z,103240.34
2018-12-15T20:54:34.474Z,103236.83
2018-12-15T20:57:03.066Z,103238.11
2018-12-15T20:59:31.473Z,103234.80
2018-12-15T21:02:00.036Z,103233.31
2018-12-15T21:04:28.593Z,103221.89
2018-12-15T21:06:57.003Z,103223.73
2018-12-15T21:09:26.394Z,103226.10
2018-12-15T21:11:55.257Z,103225.36
2018-12-15T21:14:23.669Z,103224.98
2018-12-15T21:16:52.318Z,103222.78
2018-12-15T21:19:20.813Z,103223.70
2018-12-15T21:21:49.745Z,103215.03
2018-12-15T21:24:18.747Z,103216.86
2018-12-15T21:26:47.363Z,103211.71
2018-12-15T21:29:15.791Z,103207.66
2018-12-15T21:31:44.294Z,103203.41
2018-12-15T21:34:13.220Z,103210.40
2018-12-15T21:36:41.645Z,103200.47
2018-12-15T21:39:10.256Z,103204.67
2018-12-15T21:41:39.090Z,103199.33
2018-12-15T21:44:07.524Z,103196.00
2018-12-15T21:46:35.995Z,103193.59
2018-12-15T21:49:04.646Z,103192.48
2018-12-15T21:51:33.102Z,103187.88
2018-12-15T21:54:02.119Z,103182.52
2018-12-15T21:56:30.804Z,103183.80
2018-12-15T21:58:59.342Z,103183.23
2018-12-15T22:01:27.800Z,103184.69
2018-12-15T22:03:56.433Z,103176.92
2018-12-15T22:06:24.866Z,103175.60
2018-12-15T22:08:53.519Z,103173.20
2018-12-15T22:11:22.190Z,103174.66
2018-12-15T22:13:50.589Z,103164.18
2018-12-15T22:16:19.212Z,103161.23
2018-12-15T22:18:47.838Z,103162.14
2018-12-15T22:21:16.315Z,103161.02
2018-12-15T22:23:45.337Z,103156.79
2018-12-15T22:26:13.982Z,103156.58
2018-12-15T22:28:42.700Z,103154.01
2018-12-15T22:31:11.838Z,103154.38
2018-12-15T22:33:40.412Z,103160.61
2018-12-15T22:36:09.515Z,103153.42
2018-12-15T22:38:38.049Z,103151.56
2018-12-15T22:41:06.670Z,103145.12
2018-12-15T22:43:35.271Z,103139.59
2018-12-15T22:46:03.832Z,103132.94
2018-12-15T22:48:32.565Z,103135.31
2018-12-15T22:51:01.041Z,103130.33
2018-12-15T22:53:30.445Z,103121.64
2018-12-15T22:55:58.962Z,103120.35
2018-12-15T22:58:27.612Z,103116.48
2018-12-15T23:01:01.619Z,103118.69
2018-12-15T23:03:30.105Z,103114.83
2018-12-15T23:05:58.567Z,103109.67
2018-12-15T23:08:27.535Z,103106.19
2018-12-15T23:10:55.983Z,103113.70
2018-12-15T23:13:24.598Z,103106.30
2018-12-15T23:15:53.193Z,103104.27
2018-12-15T23:18:21.609Z,103102.60
2018-12-15T23:20:50.251Z,103099.28
2018-12-15T23:23:18.905Z,103099.07
2018-12-15T23:25:47.296Z,103098.48
2018-12-15T23:28:15.675Z,103095.00
2018-12-15T23:30:44.467Z,103099.41
2018-12-15T23:33:12.948Z,103094.03
2018-12-15T23:35:41.366Z,103096.03
2018-12-15T23:38:10.222Z,103093.24
2018-12-15T23:40:38.654Z,103095.07
2018-12-15T23:43:07.093Z,103098.19
2018-12-15T23:45:36.033Z,103094.11
2018-12-15T23:48:04.576Z,103090.95
2018-12-15T23:50:32.983Z,103082.84
2018-12-15T23:53:01.960Z,103078.43
2018-12-15T23:55:30.357Z,103077.30
2018-12-15T23:57:58.774Z,103077.09
